Nadeshiko_maru — JD2502 — position and weather

sailwx.info

Track history (hours):
 
Tides and Currents Weather Stations Pressure Air Temp Water Temp Dewpoint Dewpoint Depression Visibility Wind Speed Wind Dir Waves Ship Positions

Nadeshiko_maru

Last reported at 2017-Sep-25 05:08 UTC. Time now 2017-Oct-17 11:27 UTC.
Position N 35°03' E 139°34'.
Warning: this ship's position is 22 days out of date.

Length 69 m; draft 4.5 m.

Type: Tanker. MMSI: 431000393.

Date/timePositionNaut miles runAvg speedWind from/ knotsBaromVisibWave heightAir tempDewpointWater temp
2017-Sep-25 05:08N 35°03' E 139°34'211.7
2017-Sep-25 05:00N 35°03' E 139°35'612.1
2017-Sep-25 04:30N 35°06' E 139°42'612.3
2017-Sep-25 04:00N 35°12' E 139°46'5 9.3
2017-Sep-25 03:30N 35°16' E 139°45'5 9.8
2017-Sep-25 03:00N 35°19' E 139°40'1 2.2
2017-Sep-25 02:30N 35°18' E 139°39'0 0.0
2017-Sep-25 02:00N 35°18' E 139°39'0 0.0
2017-Sep-25 01:30N 35°18' E 139°39'0 0.0
2017-Sep-25 00:59N 35°18' E 139°39'0 0.0
2017-Sep-25 00:28N 35°18' E 139°39'0 0.0
2017-Sep-24 22:36N 35°18' E 139°39'0 0.8
2017-Sep-24 22:29N 35°18' E 139°39'2 3.6
2017-Sep-24 22:00N 35°19' E 139°41'0 0.9
2017-Sep-24 21:30N 35°20' E 139°41'0 0.0
2017-Sep-24 21:00N 35°20' E 139°41'0 0.0
2017-Sep-24 20:30N 35°20' E 139°41'0 0.0
2017-Sep-24 20:00N 35°20' E 139°41'0 0.0
2017-Sep-24 19:30N 35°20' E 139°41'0 0.0
2017-Sep-24 19:00N 35°20' E 139°41'0 0.1
2017-Sep-24 18:30N 35°20' E 139°41'0 0.0
2017-Sep-24 18:00N 35°20' E 139°41'0 0.0
2017-Sep-24 17:30N 35°20' E 139°41'0 0.0
2017-Sep-24 17:00N 35°20' E 139°41'0 0.1
2017-Sep-24 16:30N 35°20' E 139°41'0 0.0
2017-Sep-24 16:00N 35°20' E 139°41'0 0.0
2017-Sep-24 15:30N 35°20' E 139°41'0 0.0
2017-Sep-24 15:00N 35°20' E 139°41'0 0.0
2017-Sep-24 14:30N 35°20' E 139°41'0 0.0
2017-Sep-24 14:00N 35°20' E 139°41'0 0.0
2017-Sep-24 13:30N 35°20' E 139°41'3 5.0
2017-Sep-24 13:00N 35°22' E 139°42'510.2
2017-Sep-24 12:30N 35°26' E 139°46'611.2
2017-Sep-24 12:00N 35°29' E 139°51'610.5
2017-Sep-24 11:27N 35°30' E 139°58'2 0.3
2017-Sep-24 04:50N 35°29' E 140°01'6 6.8
2017-Sep-24 04:00N 35°31' E 139°54'611.4
2017-Sep-24 03:30N 35°30' E 139°47'3 5.4
2017-Sep-24 03:00N 35°30' E 139°44'0 0.0
2017-Sep-24 02:30N 35°30' E 139°44'0 0.0
2017-Sep-24 02:00N 35°30' E 139°44'0 0.0
2017-Sep-24 01:30N 35°30' E 139°44'0 0.0
2017-Sep-24 01:00N 35°30' E 139°44'0 0.0
2017-Sep-24 00:30N 35°30' E 139°44'0 0.0
2017-Sep-24 00:00N 35°30' E 139°44'0 0.0
2017-Sep-23 23:30N 35°30' E 139°44'2 3.0
2017-Sep-23 23:00N 35°29' E 139°42'4 7.2
2017-Sep-23 22:31N 35°26' E 139°45'3 6.0
2017-Sep-23 22:00N 35°23' E 139°46'5 9.1
2017-Sep-23 21:30N 35°19' E 139°44'510.1
2017-Sep-23 21:00N 35°15' E 139°47'510.1
2017-Sep-23 20:30N 35°09' E 139°47'1 2.1
2017-Sep-23 20:00N 35°08' E 139°47'  
2017-Sep-16 01:00N 34°08' E 135°04'3 0.9
2017-Sep-15 21:50N 34°07' E 135°07'2 4.8
2017-Sep-15 21:30N 34°09' E 135°07'0 0.1
2017-Sep-15 21:00N 34°09' E 135°06'0 0.0
2017-Sep-15 20:30N 34°09' E 135°06'0 0.0
2017-Sep-15 20:01N 34°09' E 135°06'0 0.0
2017-Sep-15 19:30N 34°09' E 135°06'0 0.0
2017-Sep-15 19:00N 34°09' E 135°06'0 0.0
2017-Sep-15 18:29N 34°09' E 135°06'0 0.0
2017-Sep-15 18:01N 34°09' E 135°06'0 0.0
2017-Sep-15 17:31N 34°09' E 135°06'0 0.0
2017-Sep-15 17:00N 34°09' E 135°06'0 0.0
2017-Sep-15 16:30N 34°09' E 135°06'0 0.0
2017-Sep-15 16:01N 34°09' E 135°06'0 0.0
2017-Sep-15 15:31N 34°09' E 135°06'0 0.0
2017-Sep-15 15:00N 34°09' E 135°06'0 0.0
2017-Sep-15 14:31N 34°09' E 135°06'0 0.0
2017-Sep-15 14:00N 34°09' E 135°06'0 0.0
2017-Sep-15 13:29N 34°09' E 135°06'0 0.0
2017-Sep-15 13:01N 34°09' E 135°06'0 0.0
2017-Sep-15 12:30N 34°09' E 135°06'0 0.1
2017-Sep-15 11:59N 34°09' E 135°06'4 7.6
2017-Sep-15 11:31N 34°11' E 135°03'16 9.8
2017-Sep-15 09:51N 34°27' E 135°02'411.3
2017-Sep-15 09:28N 34°31' E 135°05'511.4
2017-Sep-15 09:00N 34°36' E 135°07'3 5.3
2017-Sep-15 08:30N 34°39' E 135°08'0 0.0
2017-Sep-15 08:00N 34°39' E 135°08'0 0.0
2017-Sep-15 07:31N 34°39' E 135°08'0 0.0
2017-Sep-15 07:00N 34°39' E 135°08'0 0.0
2017-Sep-15 06:30N 34°39' E 135°08'0 0.0
2017-Sep-15 06:00N 34°39' E 135°08'0 0.0
2017-Sep-15 05:30N 34°39' E 135°08'  
Track history (hours):
 
Tides and Currents Weather Stations Pressure Air Temp Water Temp Dewpoint Dewpoint Depression Visibility Wind Speed Wind Dir Waves Ship Positions

Nadeshiko_maru

Last reported at 2017-Sep-25 05:08 UTC. Time now 2017-Oct-17 11:28 UTC.
Position N 35°03' E 139°34'.
Warning: this ship's position is 22 days out of date.

Length 69 m; draft 4.5 m.

Type: Tanker. MMSI: 431000393.

Date/timePositionNaut miles runAvg speedWind from/ knotsBaromVisibWave heightAir tempDewpointWater temp
2017-Sep-25 05:08N 35°03' E 139°34'211.7
2017-Sep-25 05:00N 35°03' E 139°35'612.1
2017-Sep-25 04:30N 35°06' E 139°42'612.3
2017-Sep-25 04:00N 35°12' E 139°46'5 9.3
2017-Sep-25 03:30N 35°16' E 139°45'5 9.8
2017-Sep-25 03:00N 35°19' E 139°40'1 2.2
2017-Sep-25 02:30N 35°18' E 139°39'0 0.0
2017-Sep-25 02:00N 35°18' E 139°39'0 0.0
2017-Sep-25 01:30N 35°18' E 139°39'0 0.0
2017-Sep-25 00:59N 35°18' E 139°39'0 0.0
2017-Sep-25 00:28N 35°18' E 139°39'0 0.0
2017-Sep-24 22:36N 35°18' E 139°39'0 0.8
2017-Sep-24 22:29N 35°18' E 139°39'2 3.6
2017-Sep-24 22:00N 35°19' E 139°41'0 0.9
2017-Sep-24 21:30N 35°20' E 139°41'0 0.0
2017-Sep-24 21:00N 35°20' E 139°41'0 0.0
2017-Sep-24 20:30N 35°20' E 139°41'0 0.0
2017-Sep-24 20:00N 35°20' E 139°41'0 0.0
2017-Sep-24 19:30N 35°20' E 139°41'0 0.0
2017-Sep-24 19:00N 35°20' E 139°41'0 0.1
2017-Sep-24 18:30N 35°20' E 139°41'0 0.0
2017-Sep-24 18:00N 35°20' E 139°41'0 0.0
2017-Sep-24 17:30N 35°20' E 139°41'0 0.0
2017-Sep-24 17:00N 35°20' E 139°41'0 0.1
2017-Sep-24 16:30N 35°20' E 139°41'0 0.0
2017-Sep-24 16:00N 35°20' E 139°41'0 0.0
2017-Sep-24 15:30N 35°20' E 139°41'0 0.0
2017-Sep-24 15:00N 35°20' E 139°41'0 0.0
2017-Sep-24 14:30N 35°20' E 139°41'0 0.0
2017-Sep-24 14:00N 35°20' E 139°41'0 0.0
2017-Sep-24 13:30N 35°20' E 139°41'3 5.0
2017-Sep-24 13:00N 35°22' E 139°42'510.2
2017-Sep-24 12:30N 35°26' E 139°46'611.2
2017-Sep-24 12:00N 35°29' E 139°51'610.5
2017-Sep-24 11:27N 35°30' E 139°58'2 0.3
2017-Sep-24 04:50N 35°29' E 140°01'6 6.8
2017-Sep-24 04:00N 35°31' E 139°54'611.4
2017-Sep-24 03:30N 35°30' E 139°47'3 5.4
2017-Sep-24 03:00N 35°30' E 139°44'0 0.0
2017-Sep-24 02:30N 35°30' E 139°44'0 0.0
2017-Sep-24 02:00N 35°30' E 139°44'0 0.0
2017-Sep-24 01:30N 35°30' E 139°44'0 0.0
2017-Sep-24 01:00N 35°30' E 139°44'0 0.0
2017-Sep-24 00:30N 35°30' E 139°44'0 0.0
2017-Sep-24 00:00N 35°30' E 139°44'0 0.0
2017-Sep-23 23:30N 35°30' E 139°44'2 3.0
2017-Sep-23 23:00N 35°29' E 139°42'4 7.2
2017-Sep-23 22:31N 35°26' E 139°45'3 6.0
2017-Sep-23 22:00N 35°23' E 139°46'5 9.1
2017-Sep-23 21:30N 35°19' E 139°44'510.1
2017-Sep-23 21:00N 35°15' E 139°47'510.1
2017-Sep-23 20:30N 35°09' E 139°47'1 2.1
2017-Sep-23 20:00N 35°08' E 139°47'  
2017-Sep-16 01:00N 34°08' E 135°04'3 0.9
2017-Sep-15 21:50N 34°07' E 135°07'2 4.8
2017-Sep-15 21:30N 34°09' E 135°07'0 0.1
2017-Sep-15 21:00N 34°09' E 135°06'0 0.0
2017-Sep-15 20:30N 34°09' E 135°06'0 0.0
2017-Sep-15 20:01N 34°09' E 135°06'0 0.0
2017-Sep-15 19:30N 34°09' E 135°06'0 0.0
2017-Sep-15 19:00N 34°09' E 135°06'0 0.0
2017-Sep-15 18:29N 34°09' E 135°06'0 0.0
2017-Sep-15 18:01N 34°09' E 135°06'0 0.0
2017-Sep-15 17:31N 34°09' E 135°06'0 0.0
2017-Sep-15 17:00N 34°09' E 135°06'0 0.0
2017-Sep-15 16:30N 34°09' E 135°06'0 0.0
2017-Sep-15 16:01N 34°09' E 135°06'0 0.0
2017-Sep-15 15:31N 34°09' E 135°06'0 0.0
2017-Sep-15 15:00N 34°09' E 135°06'0 0.0
2017-Sep-15 14:31N 34°09' E 135°06'0 0.0
2017-Sep-15 14:00N 34°09' E 135°06'0 0.0
2017-Sep-15 13:29N 34°09' E 135°06'0 0.0
2017-Sep-15 13:01N 34°09' E 135°06'0 0.0
2017-Sep-15 12:30N 34°09' E 135°06'0 0.1
2017-Sep-15 11:59N 34°09' E 135°06'4 7.6
2017-Sep-15 11:31N 34°11' E 135°03'16 9.8
2017-Sep-15 09:51N 34°27' E 135°02'411.3
2017-Sep-15 09:28N 34°31' E 135°05'511.4
2017-Sep-15 09:00N 34°36' E 135°07'3 5.3
2017-Sep-15 08:30N 34°39' E 135°08'0 0.0
2017-Sep-15 08:00N 34°39' E 135°08'0 0.0
2017-Sep-15 07:31N 34°39' E 135°08'0 0.0
2017-Sep-15 07:00N 34°39' E 135°08'0 0.0
2017-Sep-15 06:30N 34°39' E 135°08'0 0.0
2017-Sep-15 06:00N 34°39' E 135°08'0 0.0
2017-Sep-15 05:30N 34°39' E 135°08'  

Dump ship's entire track history